createdAt,value
2023-10-06T00:00:59.929Z,8.70
2023-10-06T00:03:27.914Z,8.70
2023-10-06T00:05:57.590Z,8.60
2023-10-06T00:08:34.240Z,8.27
2023-10-06T00:11:13.169Z,8.43
2023-10-06T00:13:53.490Z,8.67
2023-10-06T00:16:22.382Z,8.37
2023-10-06T00:18:54.012Z,8.23
2023-10-06T00:21:26.472Z,7.87
2023-10-06T00:23:56.194Z,8.10
2023-10-06T00:26:28.011Z,7.30
2023-10-06T00:28:57.669Z,8.07
2023-10-06T00:31:25.889Z,8.33
2023-10-06T00:33:59.060Z,8.10
2023-10-06T00:36:30.636Z,7.37
2023-10-06T00:38:58.629Z,7.67
2023-10-06T00:41:29.569Z,8.07
2023-10-06T00:43:58.166Z,8.03
2023-10-06T00:46:26.268Z,7.23
2023-10-06T00:49:00.436Z,7.37
2023-10-06T00:51:31.581Z,7.10
2023-10-06T00:54:00.706Z,7.90
2023-10-06T00:56:30.615Z,8.10
2023-10-06T00:59:05.515Z,7.70
2023-10-06T01:01:35.745Z,7.93
2023-10-06T01:04:09.365Z,8.03
2023-10-06T01:06:39.459Z,7.10
2023-10-06T01:09:15.258Z,7.77
2023-10-06T01:11:46.823Z,7.93
2023-10-06T01:14:22.816Z,8.07
2023-10-06T01:16:54.525Z,7.40
2023-10-06T01:19:28.240Z,8.03
2023-10-06T01:21:57.451Z,7.43
2023-10-06T01:24:27.569Z,7.43
2023-10-06T01:27:00.133Z,7.60
2023-10-06T01:29:32.344Z,7.13
2023-10-06T01:32:06.382Z,7.63
2023-10-06T01:34:39.528Z,7.90
2023-10-06T01:37:09.398Z,8.40
2023-10-06T01:39:40.329Z,8.40
2023-10-06T01:42:17.734Z,8.60
2023-10-06T01:44:45.839Z,8.27
2023-10-06T01:47:19.924Z,8.17
2023-10-06T01:49:48.906Z,8.40
2023-10-06T01:52:20.841Z,8.07
2023-10-06T01:54:50.292Z,9.10
2023-10-06T01:57:18.708Z,8.90
2023-10-06T01:59:47.145Z,8.80
2023-10-06T02:02:15.575Z,8.83
2023-10-06T02:04:48.718Z,8.37
2023-10-06T02:07:20.107Z,8.37
2023-10-06T02:09:48.155Z,8.57
2023-10-06T02:12:18.340Z,8.53
2023-10-06T02:14:49.043Z,8.57
2023-10-06T02:17:18.372Z,7.90
2023-10-06T02:19:48.504Z,8.03
2023-10-06T02:22:19.528Z,7.67
2023-10-06T02:24:47.773Z,7.83
2023-10-06T02:27:17.341Z,7.47
2023-10-06T02:29:46.671Z,7.57
2023-10-06T02:32:18.040Z,8.10
2023-10-06T02:34:46.743Z,7.43
2023-10-06T02:37:20.346Z,7.97
2023-10-06T02:39:51.676Z,7.77
2023-10-06T02:42:21.602Z,8.87
2023-10-06T02:44:53.758Z,8.30
2023-10-06T02:47:22.784Z,8.37
2023-10-06T02:50:01.197Z,8.33
2023-10-06T02:52:38.633Z,8.13
2023-10-06T02:55:09.804Z,7.90
2023-10-06T02:57:42.778Z,7.17
2023-10-06T03:00:25.421Z,7.43
2023-10-06T03:02:57.509Z,7.47
2023-10-06T03:05:33.374Z,7.53
2023-10-06T03:08:10.360Z,7.30
2023-10-06T03:10:45.210Z,7.63
2023-10-06T03:13:18.116Z,8.20
2023-10-06T03:15:48.719Z,8.10
2023-10-06T03:18:17.442Z,7.80
2023-10-06T03:20:50.733Z,7.67
2023-10-06T03:23:27.878Z,6.80
2023-10-06T03:25:57.583Z,7.60
2023-10-06T03:28:33.447Z,7.47
2023-10-06T03:31:05.951Z,7.70
2023-10-06T03:33:34.030Z,7.50
2023-10-06T03:36:02.471Z,7.87
2023-10-06T03:38:36.623Z,7.73
2023-10-06T03:41:27.487Z,8.07
2023-10-06T03:44:02.348Z,8.43
2023-10-06T03:46:38.561Z,7.80
2023-10-06T03:49:09.954Z,7.53
2023-10-06T03:51:40.475Z,8.37
2023-10-06T03:54:10.833Z,8.43
2023-10-06T03:56:39.590Z,8.03
2023-10-06T03:59:17.151Z,8.17
2023-10-06T04:01:46.352Z,8.23
2023-10-06T04:04:23.976Z,8.50
2023-10-06T04:07:05.303Z,8.43
2023-10-06T04:09:34.354Z,7.93
2023-10-06T04:12:04.004Z,7.87
2023-10-06T04:14:34.652Z,8.10
2023-10-06T04:17:06.840Z,7.03
2023-10-06T04:19:35.841Z,7.27
2023-10-06T04:22:05.011Z,7.07
2023-10-06T04:24:34.056Z,7.80
2023-10-06T04:27:01.714Z,8.47
2023-10-06T04:29:36.066Z,8.10
2023-10-06T04:32:05.586Z,8.47
2023-10-06T04:34:39.974Z,8.03
2023-10-06T04:37:09.110Z,8.53
2023-10-06T04:39:40.115Z,7.87
2023-10-06T04:42:10.253Z,8.27
2023-10-06T04:44:38.868Z,7.67
2023-10-06T04:47:11.650Z,8.17
2023-10-06T04:49:39.778Z,8.43
2023-10-06T04:52:08.508Z,7.80
2023-10-06T04:54:39.170Z,8.23
2023-10-06T04:57:09.888Z,8.03
2023-10-06T04:59:38.345Z,8.47
2023-10-06T05:02:06.889Z,8.47
2023-10-06T05:04:36.923Z,8.13
2023-10-06T05:07:07.675Z,8.20
2023-10-06T05:09:36.669Z,8.07
2023-10-06T05:12:06.831Z,7.97
2023-10-06T05:14:35.771Z,7.93
2023-10-06T05:17:04.364Z,8.57
2023-10-06T05:19:36.055Z,8.03
2023-10-06T05:22:08.164Z,7.77
2023-10-06T05:24:36.448Z,8.70
2023-10-06T05:27:07.539Z,8.03
2023-10-06T05:29:37.527Z,8.40
2023-10-06T05:32:08.145Z,8.57
2023-10-06T05:34:36.743Z,11.73
2023-10-06T05:37:06.456Z,9.47
2023-10-06T05:39:42.119Z,12.03
2023-10-06T05:42:12.403Z,10.33
2023-10-06T05:44:41.179Z,9.50
2023-10-06T05:47:10.458Z,10.03
2023-10-06T05:49:48.845Z,10.57
2023-10-06T05:52:18.961Z,9.73
2023-10-06T05:54:46.737Z,10.17
2023-10-06T05:57:14.660Z,9.27
2023-10-06T05:59:44.880Z,9.93
2023-10-06T06:02:13.152Z,11.70
2023-10-06T06:04:42.839Z,9.47
2023-10-06T06:07:12.118Z,9.00
2023-10-06T06:09:42.267Z,9.67
2023-10-06T06:12:12.181Z,11.17
2023-10-06T06:14:40.630Z,9.13
2023-10-06T06:17:08.657Z,9.33
2023-10-06T06:19:36.773Z,15.43
2023-10-06T06:22:07.221Z,16.10
2023-10-06T06:24:36.374Z,16.80
2023-10-06T06:27:06.693Z,14.90
2023-10-06T06:29:34.559Z,12.83
2023-10-06T06:32:13.403Z,11.80
2023-10-06T06:34:46.155Z,12.07
2023-10-06T06:37:14.287Z,11.40
2023-10-06T06:39:45.416Z,11.57
2023-10-06T06:42:15.904Z,13.13
2023-10-06T06:44:49.074Z,13.27
2023-10-06T06:47:22.133Z,14.70
2023-10-06T06:49:58.640Z,14.70
2023-10-06T06:52:26.792Z,15.03
2023-10-06T06:54:55.231Z,16.00
2023-10-06T06:57:24.650Z,15.40
2023-10-06T06:59:53.988Z,15.67
2023-10-06T07:02:22.772Z,15.47
2023-10-06T07:04:51.251Z,15.60
2023-10-06T07:07:19.581Z,15.93
2023-10-06T07:09:48.236Z,15.47
2023-10-06T07:12:16.494Z,17.03
2023-10-06T07:14:46.892Z,17.03
2023-10-06T07:17:15.477Z,17.63
2023-10-06T07:19:44.590Z,18.13
2023-10-06T07:22:12.653Z,18.77
2023-10-06T07:24:41.609Z,20.27
2023-10-06T07:27:10.981Z,20.50
2023-10-06T07:29:39.632Z,19.40
2023-10-06T07:32:11.889Z,20.00
2023-10-06T07:34:40.370Z,19.07
2023-10-06T07:37:09.055Z,18.90
2023-10-06T07:39:38.467Z,19.47
2023-10-06T07:42:07.990Z,17.97
2023-10-06T07:44:37.026Z,18.47
2023-10-06T07:47:05.648Z,18.43
2023-10-06T07:49:37.638Z,18.30
2023-10-06T07:52:06.125Z,19.07
2023-10-06T07:54:34.875Z,18.67
2023-10-06T07:57:03.992Z,19.00
2023-10-06T07:59:32.143Z,19.87
2023-10-06T08:02:00.101Z,21.03
2023-10-06T08:04:31.592Z,21.13
2023-10-06T08:07:07.393Z,20.00
2023-10-06T08:09:35.855Z,19.93
2023-10-06T08:14:52.130Z,19.03
2023-10-06T08:17:24.459Z,19.27
2023-10-06T08:19:55.250Z,16.13
2023-10-06T08:22:27.080Z,13.27
2023-10-06T08:24:59.330Z,13.83
2023-10-06T08:27:28.991Z,13.67
2023-10-06T08:29:58.445Z,12.93
2023-10-06T08:32:31.220Z,12.87
2023-10-06T08:34:59.601Z,12.23
2023-10-06T08:37:33.916Z,12.43
2023-10-06T08:40:08.103Z,12.43
2023-10-06T08:42:38.686Z,12.50
2023-10-06T08:45:10.037Z,13.03
2023-10-06T08:47:49.433Z,11.97
2023-10-06T08:50:34.653Z,12.00
2023-10-06T08:53:11.489Z,13.70
2023-10-06T08:55:40.576Z,13.20
2023-10-06T08:58:09.642Z,13.20
2023-10-06T09:00:39.579Z,13.73
2023-10-06T09:03:12.444Z,12.67
2023-10-06T09:05:42.245Z,12.70
2023-10-06T09:08:18.978Z,10.60
2023-10-06T09:10:52.552Z,10.10
2023-10-06T09:13:25.029Z,9.77
2023-10-06T09:16:04.877Z,10.23
2023-10-06T09:18:35.860Z,10.00
2023-10-06T09:21:17.712Z,10.50
2023-10-06T09:23:50.531Z,10.37
2023-10-06T09:26:30.830Z,9.50
2023-10-06T09:29:06.242Z,9.60
2023-10-06T09:31:46.308Z,8.20
2023-10-06T09:34:26.136Z,8.33
2023-10-06T09:36:55.922Z,8.53
2023-10-06T09:39:35.236Z,9.07
2023-10-06T09:42:09.628Z,8.83
2023-10-06T09:44:40.217Z,8.97
2023-10-06T09:47:12.854Z,8.10
2023-10-06T09:49:44.480Z,8.90
2023-10-06T09:52:13.923Z,8.70
2023-10-06T09:54:45.978Z,9.20
2023-10-06T09:57:14.921Z,8.60
2023-10-06T09:59:45.146Z,8.93
2023-10-06T10:02:17.703Z,9.70
2023-10-06T10:04:52.918Z,8.80
2023-10-06T10:07:27.057Z,8.30
2023-10-06T10:09:59.487Z,8.80
2023-10-06T10:12:39.027Z,8.53
2023-10-06T10:15:23.113Z,8.13
2023-10-06T10:18:01.134Z,7.00
2023-10-06T10:20:31.374Z,7.80
2023-10-06T10:23:06.091Z,7.33
2023-10-06T10:25:38.375Z,7.40
2023-10-06T10:28:14.469Z,6.97
2023-10-06T10:30:57.502Z,6.50
2023-10-06T10:33:35.560Z,7.30
2023-10-06T10:36:23.058Z,6.73
2023-10-06T10:39:08.996Z,6.40
2023-10-06T10:41:42.905Z,6.23
2023-10-06T10:44:25.348Z,5.30
2023-10-06T10:47:02.981Z,5.83
2023-10-06T10:49:34.543Z,6.60
2023-10-06T10:52:06.414Z,5.90
2023-10-06T10:54:39.566Z,6.10
2023-10-06T10:57:15.744Z,5.30
2023-10-06T11:00:14.818Z,5.17
2023-10-06T11:02:44.969Z,5.10
2023-10-06T11:05:13.486Z,4.97
2023-10-06T11:07:45.079Z,5.13
2023-10-06T11:10:21.245Z,5.07
2023-10-06T11:13:16.795Z,5.20
2023-10-06T11:15:45.836Z,4.27
2023-10-06T11:18:21.419Z,4.77
2023-10-06T11:20:51.834Z,4.03
2023-10-06T11:23:24.602Z,4.47
2023-10-06T11:25:54.983Z,3.67
2023-10-06T11:28:25.925Z,3.67
2023-10-06T11:30:55.904Z,4.07
2023-10-06T11:33:25.100Z,3.23
2023-10-06T11:35:58.992Z,3.30
2023-10-06T11:38:27.452Z,2.87
2023-10-06T11:40:58.404Z,3.33
2023-10-06T11:43:32.156Z,3.37
2023-10-06T11:46:03.744Z,3.20
2023-10-06T11:48:36.823Z,3.40
2023-10-06T11:51:10.430Z,3.30
2023-10-06T11:53:42.437Z,3.10
2023-10-06T11:56:14.053Z,3.10
2023-10-06T11:58:50.597Z,3.20
2023-10-06T12:01:33.301Z,3.10
2023-10-06T12:04:09.338Z,3.30
2023-10-06T12:06:41.879Z,3.53
2023-10-06T12:09:25.121Z,3.13
2023-10-06T12:11:57.771Z,2.90
2023-10-06T12:14:40.064Z,2.63
2023-10-06T12:17:08.742Z,3.00
2023-10-06T12:19:38.485Z,3.30
2023-10-06T12:22:07.640Z,3.37
2023-10-06T12:24:35.971Z,2.80
2023-10-06T12:27:04.837Z,3.07
2023-10-06T12:29:35.680Z,3.57
2023-10-06T12:32:07.620Z,3.20
2023-10-06T12:34:38.942Z,3.30
2023-10-06T12:37:10.006Z,3.13
2023-10-06T12:39:41.386Z,2.83
2023-10-06T12:42:13.278Z,2.93
2023-10-06T12:44:45.127Z,3.20
2023-10-06T12:47:13.896Z,3.00
2023-10-06T12:49:45.131Z,3.00
2023-10-06T12:52:17.534Z,3.13
2023-10-06T12:54:46.525Z,3.23
2023-10-06T12:57:15.317Z,3.17
2023-10-06T12:59:44.917Z,3.70
2023-10-06T13:02:15.622Z,3.50
2023-10-06T13:04:43.846Z,3.43
2023-10-06T13:07:12.591Z,2.90
2023-10-06T13:09:42.545Z,3.20
2023-10-06T13:12:11.140Z,3.33
2023-10-06T13:14:39.896Z,3.40
2023-10-06T13:17:09.768Z,3.30
2023-10-06T13:19:38.090Z,3.60
2023-10-06T13:22:07.193Z,3.70
2023-10-06T13:24:37.056Z,3.63
2023-10-06T13:27:09.991Z,3.80
2023-10-06T13:29:40.622Z,4.97
2023-10-06T13:32:12.297Z,3.67
2023-10-06T13:34:43.884Z,3.87
2023-10-06T13:37:17.831Z,3.37
2023-10-06T13:39:48.791Z,3.67
2023-10-06T13:42:18.435Z,3.47
2023-10-06T13:44:52.533Z,3.30
2023-10-06T13:47:24.223Z,3.83
2023-10-06T13:49:55.922Z,3.87
2023-10-06T13:52:29.882Z,3.83
2023-10-06T13:54:58.746Z,3.60
2023-10-06T13:57:29.642Z,3.90
2023-10-06T14:00:01.506Z,3.43
2023-10-06T14:02:32.192Z,4.10
2023-10-06T14:05:03.403Z,4.20
2023-10-06T14:07:35.411Z,4.37
2023-10-06T14:10:04.112Z,4.13
2023-10-06T14:12:32.751Z,3.60
2023-10-06T14:15:21.813Z,3.70
2023-10-06T14:17:53.670Z,3.57
2023-10-06T14:20:33.566Z,3.60
2023-10-06T14:23:10.127Z,3.90
2023-10-06T14:25:40.588Z,3.57
2023-10-06T14:28:11.724Z,3.73
2023-10-06T14:30:42.979Z,4.00
2023-10-06T14:33:18.790Z,3.70
2023-10-06T14:39:18.066Z,3.67
2023-10-06T14:42:04.998Z,3.70
2023-10-06T14:44:50.712Z,4.00
2023-10-06T14:47:20.788Z,3.40
2023-10-06T14:49:52.376Z,3.70
2023-10-06T14:52:23.485Z,4.00
2023-10-06T14:54:54.823Z,4.20
2023-10-06T14:57:23.061Z,3.90
2023-10-06T14:59:56.679Z,4.20
2023-10-06T15:02:24.946Z,3.97
2023-10-06T15:04:54.047Z,4.57
2023-10-06T15:07:22.420Z,3.53
2023-10-06T15:09:53.519Z,3.40
2023-10-06T15:12:23.239Z,3.50
2023-10-06T15:14:51.720Z,3.70
2023-10-06T15:17:20.854Z,4.60
2023-10-06T15:19:49.992Z,4.10
2023-10-06T15:22:21.423Z,3.40
2023-10-06T15:24:51.136Z,3.30
2023-10-06T15:27:24.452Z,4.17
2023-10-06T15:29:54.146Z,3.50
2023-10-06T15:32:26.295Z,3.43
2023-10-06T15:34:54.361Z,3.73
2023-10-06T15:37:23.496Z,3.50
2023-10-06T15:39:52.859Z,5.33
2023-10-06T15:42:23.205Z,3.53
2023-10-06T15:44:56.121Z,3.77
2023-10-06T15:47:24.497Z,3.97
2023-10-06T15:50:06.142Z,4.07
2023-10-06T15:52:48.204Z,3.77
2023-10-06T15:55:17.712Z,3.97
2023-10-06T15:57:49.060Z,3.27
2023-10-06T16:00:21.786Z,3.77
2023-10-06T16:02:52.186Z,3.90
2023-10-06T16:05:27.999Z,4.27
2023-10-06T16:07:57.812Z,3.70
2023-10-06T16:10:27.041Z,4.17
2023-10-06T16:12:59.792Z,3.57
2023-10-06T16:15:29.675Z,3.40
2023-10-06T16:18:02.271Z,3.97
2023-10-06T16:20:32.389Z,3.80
2023-10-06T16:23:02.617Z,3.63
2023-10-06T16:25:32.262Z,3.90
2023-10-06T16:28:06.347Z,4.00
2023-10-06T16:30:37.290Z,5.60
2023-10-06T16:33:07.111Z,3.90
2023-10-06T16:35:43.200Z,4.20
2023-10-06T16:38:15.971Z,4.23
2023-10-06T16:40:43.968Z,3.80
2023-10-06T16:43:16.663Z,4.00
2023-10-06T16:45:46.996Z,4.30
2023-10-06T16:48:16.650Z,4.00
2023-10-06T16:50:46.937Z,4.40
2023-10-06T16:53:19.098Z,4.10
2023-10-06T16:55:49.344Z,4.27
2023-10-06T16:58:20.975Z,4.63
2023-10-06T17:00:52.622Z,4.60
2023-10-06T17:03:22.154Z,4.57
2023-10-06T17:05:52.008Z,4.37
2023-10-06T17:08:21.316Z,5.50
2023-10-06T17:10:50.847Z,4.40
2023-10-06T17:13:23.736Z,4.70
2023-10-06T17:15:53.847Z,5.40
2023-10-06T17:18:25.012Z,4.87
2023-10-06T17:20:54.415Z,4.33
2023-10-06T17:23:23.935Z,4.30
2023-10-06T17:25:51.973Z,4.73
2023-10-06T17:28:21.582Z,4.47
2023-10-06T17:30:50.619Z,4.70
2023-10-06T17:33:20.635Z,4.93
2023-10-06T17:35:51.991Z,5.20
2023-10-06T17:38:20.946Z,5.40
2023-10-06T17:40:51.073Z,5.13
2023-10-06T17:43:27.923Z,5.20
2023-10-06T17:45:59.007Z,5.13
2023-10-06T17:48:32.875Z,4.97
2023-10-06T17:51:04.800Z,5.43
2023-10-06T17:53:37.524Z,5.10
2023-10-06T17:56:09.398Z,5.43
2023-10-06T17:58:41.060Z,6.30
2023-10-06T18:01:13.180Z,5.90
2023-10-06T18:03:43.126Z,5.83
2023-10-06T18:06:11.222Z,6.67
2023-10-06T18:08:39.566Z,6.90
2023-10-06T18:11:22.573Z,7.17
2023-10-06T18:13:59.636Z,7.30
2023-10-06T18:16:32.912Z,7.47
2023-10-06T18:19:08.960Z,6.57
2023-10-06T18:21:37.526Z,6.90
2023-10-06T18:24:10.138Z,6.97
2023-10-06T18:26:39.570Z,6.40
2023-10-06T18:29:09.349Z,5.40
2023-10-06T18:31:38.596Z,5.80
2023-10-06T18:34:10.794Z,5.30
2023-10-06T18:36:41.456Z,5.40
2023-10-06T18:39:15.107Z,4.93
2023-10-06T18:41:44.389Z,5.23
2023-10-06T18:44:18.082Z,5.77
2023-10-06T18:46:54.105Z,5.77
2023-10-06T18:49:23.475Z,5.83
2023-10-06T18:51:53.958Z,5.57
2023-10-06T18:54:24.577Z,5.10
2023-10-06T18:56:56.655Z,5.87
2023-10-06T18:59:29.182Z,5.63
2023-10-06T19:02:00.383Z,5.83
2023-10-06T19:04:29.368Z,5.43
2023-10-06T19:07:02.539Z,5.20
2023-10-06T19:09:31.216Z,5.57
2023-10-06T19:11:59.201Z,4.70
2023-10-06T19:14:28.541Z,6.17
2023-10-06T19:17:03.216Z,4.70
2023-10-06T19:19:33.809Z,5.03
2023-10-06T19:22:04.393Z,5.53
2023-10-06T19:24:37.136Z,6.80
2023-10-06T19:27:07.722Z,5.67
2023-10-06T19:29:38.283Z,5.50
2023-10-06T19:32:07.401Z,5.70
2023-10-06T19:34:37.963Z,6.57
2023-10-06T19:37:06.336Z,5.60
2023-10-06T19:39:42.773Z,5.30
2023-10-06T19:42:12.742Z,5.20
2023-10-06T19:44:45.345Z,4.97
2023-10-06T19:47:16.305Z,5.60
2023-10-06T19:49:46.425Z,5.67
2023-10-06T19:52:16.659Z,5.80
2023-10-06T19:54:46.654Z,5.57
2023-10-06T19:57:16.829Z,5.30
2023-10-06T19:59:52.033Z,6.40
2023-10-06T20:02:26.750Z,6.30
2023-10-06T20:04:57.284Z,5.63
2023-10-06T20:07:30.012Z,5.83
2023-10-06T20:10:00.237Z,6.13
2023-10-06T20:12:31.540Z,5.90
2023-10-06T20:15:06.987Z,5.20
2023-10-06T20:17:41.383Z,5.53
2023-10-06T20:20:12.861Z,6.20
2023-10-06T20:22:41.096Z,7.23
2023-10-06T20:25:16.935Z,5.77
2023-10-06T20:27:47.996Z,6.10
2023-10-06T20:30:21.620Z,5.50
2023-10-06T20:33:00.006Z,5.87
2023-10-06T20:35:32.241Z,6.70
2023-10-06T20:38:03.649Z,5.60
2023-10-06T20:40:36.089Z,6.17
2023-10-06T20:43:08.978Z,5.50
2023-10-06T20:45:41.480Z,5.27
2023-10-06T20:48:10.892Z,5.83
2023-10-06T20:50:44.465Z,6.07
2023-10-06T20:53:12.755Z,6.10
2023-10-06T20:55:43.371Z,7.20
2023-10-06T20:58:14.385Z,5.73
2023-10-06T21:00:44.390Z,5.70
2023-10-06T21:03:16.892Z,6.40
2023-10-06T21:05:47.253Z,5.77
2023-10-06T21:08:18.236Z,6.20
2023-10-06T21:10:48.475Z,5.90
2023-10-06T21:13:20.642Z,6.10
2023-10-06T21:15:52.558Z,7.07
2023-10-06T21:18:24.558Z,6.23
2023-10-06T21:20:52.750Z,6.53
2023-10-06T21:23:23.362Z,6.33
2023-10-06T21:25:56.700Z,6.20
2023-10-06T21:28:30.399Z,6.03
2023-10-06T21:31:06.491Z,6.20
2023-10-06T21:33:37.171Z,6.23
2023-10-06T21:36:08.032Z,6.30
2023-10-06T21:38:36.394Z,6.50
2023-10-06T21:41:10.510Z,6.13
2023-10-06T21:43:39.451Z,5.97
2023-10-06T21:46:09.666Z,6.60
2023-10-06T21:48:41.648Z,6.20
2023-10-06T21:51:15.105Z,6.37
2023-10-06T21:53:45.708Z,5.47
2023-10-06T21:56:17.687Z,6.13
2023-10-06T21:58:48.810Z,5.73
2023-10-06T22:01:25.330Z,6.27
2023-10-06T22:03:55.229Z,6.43
2023-10-06T22:06:25.952Z,6.83
2023-10-06T22:08:55.224Z,7.10
2023-10-06T22:11:25.656Z,6.53
2023-10-06T22:14:03.128Z,6.20
2023-10-06T22:16:35.103Z,6.37
2023-10-06T22:19:04.811Z,6.00
2023-10-06T22:21:34.126Z,6.43
2023-10-06T22:24:05.919Z,6.97
2023-10-06T22:26:37.701Z,6.50
2023-10-06T22:29:10.573Z,6.53
2023-10-06T22:31:43.137Z,6.33
2023-10-06T22:34:14.517Z,6.10
2023-10-06T22:36:43.054Z,6.20
2023-10-06T22:39:11.940Z,6.80
2023-10-06T22:41:42.424Z,6.43
2023-10-06T22:44:11.830Z,6.07
2023-10-06T22:46:42.214Z,6.37
2023-10-06T22:49:11.730Z,6.00
2023-10-06T22:51:40.817Z,6.20
2023-10-06T22:54:10.109Z,6.30
2023-10-06T22:56:39.360Z,6.97
2023-10-06T22:59:07.281Z,6.73
2023-10-06T23:01:36.725Z,6.00
2023-10-06T23:04:07.997Z,6.07
2023-10-06T23:06:36.821Z,6.47
2023-10-06T23:09:06.338Z,6.00
2023-10-06T23:11:37.784Z,6.97
2023-10-06T23:14:12.559Z,6.10
2023-10-06T23:16:42.823Z,6.50
2023-10-06T23:19:14.203Z,6.53
2023-10-06T23:24:26.044Z,7.03
2023-10-06T23:26:57.849Z,6.57
2023-10-06T23:29:27.397Z,6.80
2023-10-06T23:31:57.436Z,5.90
2023-10-06T23:34:29.448Z,6.33
2023-10-06T23:37:01.739Z,6.70
2023-10-06T23:39:30.232Z,8.30
2023-10-06T23:41:58.549Z,6.60
2023-10-06T23:44:30.981Z,6.77
2023-10-06T23:47:02.629Z,7.07
2023-10-06T23:49:34.876Z,6.77
2023-10-06T23:52:03.199Z,6.80
2023-10-06T23:54:31.495Z,6.77
2023-10-06T23:56:59.662Z,6.33
2023-10-06T23:59:30.285Z,6.60
